KAOH

Lima Allen County Airport

Lima, Ohio, USA
METAR KAOH 211453Z AUTO 10006KT 10SM CLR 10/M04 A3045 RMK AO2 SLP317 T01001044 56003
Observed Flight Rules
Apr-21 @ 14:53 UTC (45 minutes ago) Visual Flight Rules
Wind Visibility Clouds
100° at 6 knots 10 miles
  • Clear skies
Temperatures Readings
Current 10°C / 50°F
Dewpoint -4°C / 25°F
Humidity 37%
Altimeter 30.45" Hg
Pressure 1031.7 hPa
Elevation 296
METAR KAOH 211453Z AUTO 10006KT 10SM CLR 10/M04 A3045 RMK AO2 SLP317 T01001044 56003
Observed Flight Rules
Apr-21 @ 14:53 UTC
(45 minutes ago)
VFR
Wind Visibility
100° at 6 knots 10 miles
Clouds
  • Clear skies
Temperature Dewpoint
10°C / 50°F -4°C / 25°F
Humidity Altimeter Pressure
37% 30.45" Hg 1031.7 hPa